sensor_id;sensor_type;location;lat;lon;timestamp;pressure;altitude;pressure_sealevel;temperature;humidity
73981;BME280;62348;51.412;5.436;2024-02-26T00:01:23;99639.78;;;5.87;100.00
73981;BME280;62348;51.412;5.436;2024-02-26T00:03:48;99634.41;;;5.87;100.00
73981;BME280;62348;51.412;5.436;2024-02-26T00:06:14;99636.53;;;5.85;100.00
73981;BME280;62348;51.412;5.436;2024-02-26T00:08:39;99643.78;;;5.85;100.00
73981;BME280;62348;51.412;5.436;2024-02-26T00:11:04;99639.22;;;5.85;100.00
73981;BME280;62348;51.412;5.436;2024-02-26T00:13:30;99641.91;;;5.85;100.00
73981;BME280;62348;51.412;5.436;2024-02-26T00:15:55;99639.47;;;5.84;100.00
73981;BME280;62348;51.412;5.436;2024-02-26T00:18:21;99633.31;;;5.83;100.00
73981;BME280;62348;51.412;5.436;2024-02-26T00:20:46;99636.00;;;5.83;100.00
73981;BME280;62348;51.412;5.436;2024-02-26T00:23:15;99632.50;;;5.83;100.00
73981;BME280;62348;51.412;5.436;2024-02-26T00:25:40;99633.56;;;5.82;100.00
73981;BME280;62348;51.412;5.436;2024-02-26T00:28:08;99630.06;;;5.81;100.00
73981;BME280;62348;51.412;5.436;2024-02-26T00:30:33;99631.97;;;5.81;100.00
73981;BME280;62348;51.412;5.436;2024-02-26T00:32:58;99635.44;;;5.81;100.00
73981;BME280;62348;51.412;5.436;2024-02-26T00:35:24;99632.22;;;5.79;100.00
73981;BME280;62348;51.412;5.436;2024-02-26T00:37:49;99624.97;;;5.80;100.00
73981;BME280;62348;51.412;5.436;2024-02-26T00:40:15;99622.53;;;5.78;100.00
73981;BME280;62348;51.412;5.436;2024-02-26T00:42:40;99617.47;;;5.77;100.00
73981;BME280;62348;51.412;5.436;2024-02-26T00:45:11;99626.00;;;5.74;100.00
73981;BME280;62348;51.412;5.436;2024-02-26T00:47:36;99620.91;;;5.72;100.00
73981;BME280;62348;51.412;5.436;2024-02-26T00:50:02;99617.41;;;5.72;100.00
73981;BME280;62348;51.412;5.436;2024-02-26T00:52:27;99613.09;;;5.71;100.00
73981;BME280;62348;51.412;5.436;2024-02-26T00:54:53;99616.88;;;5.70;100.00
73981;BME280;62348;51.412;5.436;2024-02-26T00:57:18;99608.00;;;5.69;100.00
73981;BME280;62348;51.412;5.436;2024-02-26T00:59:43;99613.34;;;5.69;100.00
73981;BME280;62348;51.412;5.436;2024-02-26T01:02:09;99615.25;;;5.68;100.00
73981;BME280;62348;51.412;5.436;2024-02-26T01:04:34;99613.63;;;5.67;100.00
73981;BME280;62348;51.412;5.436;2024-02-26T01:06:59;99618.16;;;5.67;100.00
73981;BME280;62348;51.412;5.436;2024-02-26T01:09:25;99618.47;;;5.65;100.00
73981;BME280;62348;51.412;5.436;2024-02-26T01:11:50;99616.81;;;5.64;100.00
73981;BME280;62348;51.412;5.436;2024-02-26T01:14:16;99622.19;;;5.64;100.00
73981;BME280;62348;51.412;5.436;2024-02-26T01:16:41;99625.94;;;5.63;100.00
73981;BME280;62348;51.412;5.436;2024-02-26T01:19:06;99628.63;;;5.63;100.00
73981;BME280;62348;51.412;5.436;2024-02-26T01:21:32;99636.69;;;5.63;100.00
73981;BME280;62348;51.412;5.436;2024-02-26T01:23:57;99628.06;;;5.61;100.00
73981;BME280;62348;51.412;5.436;2024-02-26T01:26:23;99639.88;;;5.60;100.00
73981;BME280;62348;51.412;5.436;2024-02-26T01:28:48;99639.06;;;5.60;100.00
73981;BME280;62348;51.412;5.436;2024-02-26T01:31:14;99640.91;;;5.59;100.00
73981;BME280;62348;51.412;5.436;2024-02-26T01:33:39;99642.00;;;5.58;100.00
73981;BME280;62348;51.412;5.436;2024-02-26T01:36:05;99641.44;;;5.56;100.00
73981;BME280;62348;51.412;5.436;2024-02-26T01:38:31;99647.84;;;5.55;100.00
73981;BME280;62348;51.412;5.436;2024-02-26T01:40:56;99648.94;;;5.54;100.00
73981;BME280;62348;51.412;5.436;2024-02-26T01:43:21;99659.13;;;5.52;100.00
73981;BME280;62348;51.412;5.436;2024-02-26T01:45:47;99659.38;;;5.51;100.00
73981;BME280;62348;51.412;5.436;2024-02-26T01:48:12;99662.06;;;5.51;100.00
73981;BME280;62348;51.412;5.436;2024-02-26T01:50:39;99647.53;;;5.46;100.00
73981;BME280;62348;51.412;5.436;2024-02-26T01:53:06;99647.78;;;5.45;100.00
73981;BME280;62348;51.412;5.436;2024-02-26T01:55:32;99650.72;;;5.43;100.00
73981;BME280;62348;51.412;5.436;2024-02-26T01:57:58;99659.81;;;5.42;100.00
73981;BME280;62348;51.412;5.436;2024-02-26T02:00:24;99653.66;;;5.42;100.00
73981;BME280;62348;51.412;5.436;2024-02-26T02:02:50;99662.78;;;5.41;100.00
73981;BME280;62348;51.412;5.436;2024-02-26T02:05:16;99668.38;;;5.39;100.00
73981;BME280;62348;51.412;5.436;2024-02-26T02:07:43;99656.88;;;5.39;100.00
73981;BME280;62348;51.412;5.436;2024-02-26T02:10:09;99658.72;;;5.38;100.00
73981;BME280;62348;51.412;5.436;2024-02-26T02:12:35;99647.69;;;5.35;100.00
73981;BME280;62348;51.412;5.436;2024-02-26T02:15:02;99648.22;;;5.32;100.00
73981;BME280;62348;51.412;5.436;2024-02-26T02:17:28;99641.22;;;5.31;100.00
73981;BME280;62348;51.412;5.436;2024-02-26T02:19:53;99645.78;;;5.30;100.00
73981;BME280;62348;51.412;5.436;2024-02-26T02:22:19;99643.34;;;5.28;100.00
73981;BME280;62348;51.412;5.436;2024-02-26T02:24:45;99639.88;;;5.28;100.00
73981;BME280;62348;51.412;5.436;2024-02-26T02:27:10;99644.44;;;5.27;100.00
73981;BME280;62348;51.412;5.436;2024-02-26T02:29:36;99643.06;;;5.25;100.00
73981;BME280;62348;51.412;5.436;2024-02-26T02:32:03;99636.09;;;5.24;100.00
73981;BME280;62348;51.412;5.436;2024-02-26T02:34:31;99635.53;;;5.22;100.00
73981;BME280;62348;51.412;5.436;2024-02-26T02:36:56;99643.28;;;5.18;100.00
73981;BME280;62348;51.412;5.436;2024-02-26T02:39:22;99640.84;;;5.17;100.00
73981;BME280;62348;51.412;5.436;2024-02-26T02:41:47;99643.53;;;5.17;100.00
73981;BME280;62348;51.412;5.436;2024-02-26T02:44:13;99637.09;;;5.18;100.00
73981;BME280;62348;51.412;5.436;2024-02-26T02:46:39;99645.41;;;5.16;100.00
73981;BME280;62348;51.412;5.436;2024-02-26T02:49:08;99648.34;;;5.15;100.00
73981;BME280;62348;51.412;5.436;2024-02-26T02:51:33;99640.28;;;5.15;100.00
73981;BME280;62348;51.412;5.436;2024-02-26T02:53:59;99636.81;;;5.14;100.00
73981;BME280;62348;51.412;5.436;2024-02-26T02:56:24;99645.91;;;5.13;100.00
73981;BME280;62348;51.412;5.436;2024-02-26T02:58:50;99649.91;;;5.11;100.00
73981;BME280;62348;51.412;5.436;2024-02-26T03:01:15;99638.34;;;5.10;100.00
73981;BME280;62348;51.412;5.436;2024-02-26T03:03:40;99642.13;;;5.09;100.00
73981;BME280;62348;51.412;5.436;2024-02-26T03:06:06;99645.03;;;5.07;100.00
73981;BME280;62348;51.412;5.436;2024-02-26T03:08:31;99643.69;;;5.05;100.00
73981;BME280;62348;51.412;5.436;2024-02-26T03:10:58;99647.41;;;5.04;100.00
73981;BME280;62348;51.412;5.436;2024-02-26T03:13:24;99644.75;;;5.04;100.00
73981;BME280;62348;51.412;5.436;2024-02-26T03:15:49;99645.81;;;5.03;100.00
73981;BME280;62348;51.412;5.436;2024-02-26T03:18:15;99639.91;;;5.01;100.00
73981;BME280;62348;51.412;5.436;2024-02-26T03:20:40;99650.88;;;4.99;100.00
73981;BME280;62348;51.412;5.436;2024-02-26T03:23:06;99648.44;;;4.98;100.00
73981;BME280;62348;51.412;5.436;2024-02-26T03:25:31;99646.81;;;4.97;100.00
73981;BME280;62348;51.412;5.436;2024-02-26T03:27:57;99655.91;;;4.96;100.00
73981;BME280;62348;51.412;5.436;2024-02-26T03:30:22;99658.03;;;4.94;100.00
73981;BME280;62348;51.412;5.436;2024-02-26T03:32:47;99658.03;;;4.94;100.00
73981;BME280;62348;51.412;5.436;2024-02-26T03:35:13;99648.38;;;4.93;100.00
73981;BME280;62348;51.412;5.436;2024-02-26T03:37:38;99654.81;;;4.92;100.00
73981;BME280;62348;51.412;5.436;2024-02-26T03:40:04;99653.97;;;4.91;100.00
73981;BME280;62348;51.412;5.436;2024-02-26T03:42:30;99650.25;;;4.92;100.00
73981;BME280;62348;51.412;5.436;2024-02-26T03:44:55;99653.19;;;4.91;100.00
73981;BME280;62348;51.412;5.436;2024-02-26T03:47:20;99657.50;;;4.92;100.00
73981;BME280;62348;51.412;5.436;2024-02-26T03:49:46;99657.75;;;4.90;100.00
73981;BME280;62348;51.412;5.436;2024-02-26T03:52:11;99659.63;;;4.89;100.00
73981;BME280;62348;51.412;5.436;2024-02-26T03:54:37;99663.09;;;4.90;100.00
73981;BME280;62348;51.412;5.436;2024-02-26T03:57:02;99660.66;;;4.88;100.00
73981;BME280;62348;51.412;5.436;2024-02-26T03:59:28;99652.88;;;4.87;100.00
73981;BME280;62348;51.412;5.436;2024-02-26T04:01:53;99651.81;;;4.88;100.00
73981;BME280;62348;51.412;5.436;2024-02-26T04:04:18;99656.34;;;4.87;100.00
73981;BME280;62348;51.412;5.436;2024-02-26T04:06:45;99658.47;;;4.85;100.00
73981;BME280;62348;51.412;5.436;2024-02-26T04:09:11;99656.06;;;4.84;100.00
73981;BME280;62348;51.412;5.436;2024-02-26T04:11:36;99662.47;;;4.83;100.00
73981;BME280;62348;51.412;5.436;2024-02-26T04:14:02;99658.44;;;4.80;100.00
73981;BME280;62348;51.412;5.436;2024-02-26T04:16:28;99671.28;;;4.78;100.00
73981;BME280;62348;51.412;5.436;2024-02-26T04:18:53;99668.59;;;4.78;100.00
73981;BME280;62348;51.412;5.436;2024-02-26T04:21:19;99670.44;;;4.78;100.00
73981;BME280;62348;51.412;5.436;2024-02-26T04:23:45;99676.06;;;4.76;100.00
73981;BME280;62348;51.412;5.436;2024-02-26T04:26:10;99664.53;;;4.76;100.00
73981;BME280;62348;51.412;5.436;2024-02-26T04:28:36;99669.09;;;4.75;100.00
73981;BME280;62348;51.412;5.436;2024-02-26T04:31:01;99678.16;;;4.74;100.00
73981;BME280;62348;51.412;5.436;2024-02-26T04:33:27;99679.25;;;4.73;100.00
73981;BME280;62348;51.412;5.436;2024-02-26T04:35:52;99676.81;;;4.72;100.00
73981;BME280;62348;51.412;5.436;2024-02-26T04:38:18;99690.19;;;4.72;100.00
73981;BME280;62348;51.412;5.436;2024-02-26T04:40:44;99682.66;;;4.68;100.00
73981;BME280;62348;51.412;5.436;2024-02-26T04:43:09;99679.19;;;4.68;100.00
73981;BME280;62348;51.412;5.436;2024-02-26T04:45:35;99683.72;;;4.67;100.00
73981;BME280;62348;51.412;5.436;2024-02-26T04:48:00;99690.13;;;4.66;100.00
73981;BME280;62348;51.412;5.436;2024-02-26T04:50:26;99691.22;;;4.65;100.00
73981;BME280;62348;51.412;5.436;2024-02-26T04:52:51;99685.84;;;4.65;100.00
73981;BME280;62348;51.412;5.436;2024-02-26T04:55:16;99686.91;;;4.64;100.00
73981;BME280;62348;51.412;5.436;2024-02-26T04:57:42;99687.97;;;4.63;100.00
73981;BME280;62348;51.412;5.436;2024-02-26T05:00:08;99692.50;;;4.63;100.00
73981;BME280;62348;51.412;5.436;2024-02-26T05:02:35;99689.25;;;4.61;100.00
73981;BME280;62348;51.412;5.436;2024-02-26T05:05:05;99680.66;;;4.59;100.00
73981;BME280;62348;51.412;5.436;2024-02-26T05:07:30;99684.19;;;4.59;100.00
73981;BME280;62348;51.412;5.436;2024-02-26T05:09:55;99691.66;;;4.57;100.00
73981;BME280;62348;51.412;5.436;2024-02-26T05:12:21;99699.69;;;4.57;100.00
73981;BME280;62348;51.412;5.436;2024-02-26T05:14:46;99700.72;;;4.56;100.00
73981;BME280;62348;51.412;5.436;2024-02-26T05:17:11;99701.53;;;4.57;100.00
73981;BME280;62348;51.412;5.436;2024-02-26T05:19:37;99711.69;;;4.55;100.00
73981;BME280;62348;51.412;5.436;2024-02-26T05:22:02;99707.97;;;4.56;100.00
73981;BME280;62348;51.412;5.436;2024-02-26T05:24:28;99710.06;;;4.54;100.00
73981;BME280;62348;51.412;5.436;2024-02-26T05:26:53;99697.75;;;4.53;100.00
73981;BME280;62348;51.412;5.436;2024-02-26T05:29:20;99706.00;;;4.51;100.00
73981;BME280;62348;51.412;5.436;2024-02-26T05:31:45;99707.09;;;4.50;100.00
73981;BME280;62348;51.412;5.436;2024-02-26T05:34:11;99703.84;;;4.48;100.00
73981;BME280;62348;51.412;5.436;2024-02-26T05:36:36;99722.59;;;4.48;100.00
73981;BME280;62348;51.412;5.436;2024-02-26T05:39:01;99730.63;;;4.48;100.00
73981;BME280;62348;51.412;5.436;2024-02-26T05:41:29;99734.91;;;4.49;100.00
73981;BME280;62348;51.412;5.436;2024-02-26T05:43:55;99733.28;;;4.48;100.00
73981;BME280;62348;51.412;5.436;2024-02-26T05:46:21;99734.09;;;4.48;100.00
73981;BME280;62348;51.412;5.436;2024-02-26T05:48:47;99744.81;;;4.48;100.00
73981;BME280;62348;51.412;5.436;2024-02-26T05:51:13;99741.31;;;4.48;100.00
73981;BME280;62348;51.412;5.436;2024-02-26T05:53:40;99753.88;;;4.47;100.00
73981;BME280;62348;51.412;5.436;2024-02-26T05:56:06;99762.75;;;4.48;100.00
73981;BME280;62348;51.412;5.436;2024-02-26T05:58:31;99759.78;;;4.49;100.00
73981;BME280;62348;51.412;5.436;2024-02-26T06:00:57;99758.75;;;4.50;100.00
73981;BME280;62348;51.412;5.436;2024-02-26T06:03:22;99760.88;;;4.48;100.00
73981;BME280;62348;51.412;5.436;2024-02-26T06:05:47;99761.66;;;4.49;100.00
73981;BME280;62348;51.412;5.436;2024-02-26T06:08:13;99755.28;;;4.50;100.00
73981;BME280;62348;51.412;5.436;2024-02-26T06:10:39;99764.09;;;4.50;100.00
73981;BME280;62348;51.412;5.436;2024-02-26T06:13:04;99756.31;;;4.49;100.00
73981;BME280;62348;51.412;5.436;2024-02-26T06:15:30;99762.75;;;4.48;100.00
73981;BME280;62348;51.412;5.436;2024-02-26T06:17:55;99775.06;;;4.49;100.00
73981;BME280;62348;51.412;5.436;2024-02-26T06:20:21;99776.94;;;4.48;100.00
73981;BME280;62348;51.412;5.436;2024-02-26T06:22:46;99775.84;;;4.49;100.00
73981;BME280;62348;51.412;5.436;2024-02-26T06:25:11;99780.16;;;4.50;100.00
73981;BME280;62348;51.412;5.436;2024-02-26T06:27:37;99776.44;;;4.52;100.00
73981;BME280;62348;51.412;5.436;2024-02-26T06:30:14;99775.84;;;4.49;100.00
73981;BME280;62348;51.412;5.436;2024-02-26T06:32:40;99789.25;;;4.49;100.00
73981;BME280;62348;51.412;5.436;2024-02-26T06:45:48;99789.50;;;4.48;100.00
73981;BME280;62348;51.412;5.436;2024-02-26T06:48:13;99797.78;;;4.46;100.00
73981;BME280;62348;51.412;5.436;2024-02-26T06:50:39;99798.81;;;4.45;100.00
73981;BME280;62348;51.412;5.436;2024-02-26T06:53:04;99794.53;;;4.44;100.00
73981;BME280;62348;51.412;5.436;2024-02-26T06:55:32;99812.44;;;4.44;100.00
73981;BME280;62348;51.412;5.436;2024-02-26T06:57:57;99808.97;;;4.43;100.00
73981;BME280;62348;51.412;5.436;2024-02-26T07:00:23;99815.38;;;4.42;100.00
73981;BME280;62348;51.412;5.436;2024-02-26T07:02:48;99820.75;;;4.42;100.00
73981;BME280;62348;51.412;5.436;2024-02-26T07:05:14;99824.47;;;4.41;100.00
73981;BME280;62348;51.412;5.436;2024-02-26T07:07:39;99827.13;;;4.41;100.00
73981;BME280;62348;51.412;5.436;2024-02-26T07:10:06;99832.50;;;4.41;100.00
73981;BME280;62348;51.412;5.436;2024-02-26T07:12:31;99832.50;;;4.41;100.00
73981;BME280;62348;51.412;5.436;2024-02-26T07:14:57;99838.91;;;4.40;100.00
73981;BME280;62348;51.412;5.436;2024-02-26T07:17:23;99848.78;;;4.40;100.00
73981;BME280;62348;51.412;5.436;2024-02-26T07:19:48;99846.94;;;4.40;100.00
73981;BME280;62348;51.412;5.436;2024-02-26T07:22:13;99848.00;;;4.39;100.00
73981;BME280;62348;51.412;5.436;2024-02-26T07:24:40;99856.25;;;4.38;100.00
73981;BME280;62348;51.412;5.436;2024-02-26T07:27:05;99861.38;;;4.39;100.00
73981;BME280;62348;51.412;5.436;2024-02-26T07:29:31;99865.91;;;4.39;100.00
73981;BME280;62348;51.412;5.436;2024-02-26T07:31:56;99865.91;;;4.39;100.00
73981;BME280;62348;51.412;5.436;2024-02-26T07:34:22;99879.88;;;4.41;100.00
73981;BME280;62348;51.412;5.436;2024-02-26T07:36:53;99873.72;;;4.40;100.00
73981;BME280;62348;51.412;5.436;2024-02-26T07:39:18;99880.09;;;4.39;100.00
73981;BME280;62348;51.412;5.436;2024-02-26T07:41:44;99887.34;;;4.39;100.00
73981;BME280;62348;51.412;5.436;2024-02-26T07:44:12;99881.97;;;4.39;100.00
73981;BME280;62348;51.412;5.436;2024-02-26T07:46:37;99890.81;;;4.39;100.00
73981;BME280;62348;51.412;5.436;2024-02-26T07:49:02;99893.50;;;4.39;100.00
73981;BME280;62348;51.412;5.436;2024-02-26T07:51:28;99891.06;;;4.38;100.00
73981;BME280;62348;51.412;5.436;2024-02-26T07:53:53;99895.59;;;4.37;100.00
73981;BME280;62348;51.412;5.436;2024-02-26T07:56:19;99892.13;;;4.37;100.00
73981;BME280;62348;51.412;5.436;2024-02-26T07:58:44;99901.19;;;4.36;100.00
73981;BME280;62348;51.412;5.436;2024-02-26T08:01:13;99909.44;;;4.34;100.00
73981;BME280;62348;51.412;5.436;2024-02-26T08:03:38;99909.44;;;4.34;100.00
73981;BME280;62348;51.412;5.436;2024-02-26T08:06:03;99904.38;;;4.33;100.00
73981;BME280;62348;51.412;5.436;2024-02-26T08:08:29;99901.69;;;4.33;100.00
73981;BME280;62348;51.412;5.436;2024-02-26T08:10:54;99907.03;;;4.33;100.00
73981;BME280;62348;51.412;5.436;2024-02-26T08:13:20;99912.41;;;4.33;100.00
73981;BME280;62348;51.412;5.436;2024-02-26T08:15:45;99917.16;;;4.30;100.00
73981;BME280;62348;51.412;5.436;2024-02-26T08:18:10;99917.75;;;4.33;100.00
73981;BME280;62348;51.412;5.436;2024-02-26T08:20:36;99925.78;;;4.33;100.00
73981;BME280;62348;51.412;5.436;2024-02-26T08:23:01;99923.91;;;4.33;100.00
73981;BME280;62348;51.412;5.436;2024-02-26T08:25:27;99920.16;;;4.34;100.00
73981;BME280;62348;51.412;5.436;2024-02-26T08:27:52;99932.50;;;4.35;100.00
73981;BME280;62348;51.412;5.436;2024-02-26T08:30:18;99934.38;;;4.35;100.00
73981;BME280;62348;51.412;5.436;2024-02-26T08:32:44;99936.22;;;4.34;100.00
73981;BME280;62348;51.412;5.436;2024-02-26T08:35:10;99942.63;;;4.33;100.00
73981;BME280;62348;51.412;5.436;2024-02-26T08:37:35;99941.84;;;4.33;100.00
73981;BME280;62348;51.412;5.436;2024-02-26T08:40:00;99943.44;;;4.34;100.00
73981;BME280;62348;51.412;5.436;2024-02-26T08:42:26;99947.50;;;4.36;100.00
73981;BME280;62348;51.412;5.436;2024-02-26T08:44:51;99953.34;;;4.33;100.00
73981;BME280;62348;51.412;5.436;2024-02-26T08:47:17;99948.78;;;4.34;100.00
73981;BME280;62348;51.412;5.436;2024-02-26T08:49:44;99954.94;;;4.34;100.00
73981;BME280;62348;51.412;5.436;2024-02-26T08:52:09;99958.69;;;4.33;100.00
73981;BME280;62348;51.412;5.436;2024-02-26T08:54:34;99962.75;;;4.36;100.00
73981;BME280;62348;51.412;5.436;2024-02-26T08:57:00;99974.75;;;4.33;100.00
73981;BME280;62348;51.412;5.436;2024-02-26T08:59:25;99966.16;;;4.31;100.00
73981;BME280;62348;51.412;5.436;2024-02-26T09:01:51;99973.34;;;4.30;100.00
73981;BME280;62348;51.412;5.436;2024-02-26T09:04:16;99982.22;;;4.31;100.00
73981;BME280;62348;51.412;5.436;2024-02-26T09:06:41;99976.88;;;4.31;100.00
73981;BME280;62348;51.412;5.436;2024-02-26T09:09:07;99986.72;;;4.30;100.00
73981;BME280;62348;51.412;5.436;2024-02-26T09:11:32;99990.25;;;4.31;100.00
73981;BME280;62348;51.412;5.436;2024-02-26T09:13:57;99995.38;;;4.33;100.00
73981;BME280;62348;51.412;5.436;2024-02-26T09:16:23;99984.91;;;4.31;100.00
73981;BME280;62348;51.412;5.436;2024-02-26T09:18:48;99993.97;;;4.30;100.00
73981;BME280;62348;51.412;5.436;2024-02-26T09:21:14;99990.47;;;4.29;100.00
73981;BME280;62348;51.412;5.436;2024-02-26T09:23:40;99997.72;;;4.29;100.00
73981;BME280;62348;51.412;5.436;2024-02-26T09:26:05;100011.66;;;4.31;100.00
73981;BME280;62348;51.412;5.436;2024-02-26T09:28:31;100008.97;;;4.31;100.00
73981;BME280;62348;51.412;5.436;2024-02-26T09:31:03;100007.09;;;4.32;100.00
73981;BME280;62348;51.412;5.436;2024-02-26T09:33:29;100008.16;;;4.30;100.00
73981;BME280;62348;51.412;5.436;2024-02-26T09:35:54;100012.47;;;4.32;100.00
73981;BME280;62348;51.412;5.436;2024-02-26T09:38:20;100022.38;;;4.31;100.00
73981;BME280;62348;51.412;5.436;2024-02-26T09:40:45;100029.31;;;4.32;100.00
73981;BME280;62348;51.412;5.436;2024-02-26T09:43:14;100031.19;;;4.32;100.00
73981;BME280;62348;51.412;5.436;2024-02-26T09:45:40;100030.16;;;4.33;100.00
73981;BME280;62348;51.412;5.436;2024-02-26T09:48:08;100031.19;;;4.32;100.00
73981;BME280;62348;51.412;5.436;2024-02-26T09:50:35;100039.00;;;4.33;100.00
73981;BME280;62348;51.412;5.436;2024-02-26T09:53:01;100045.94;;;4.34;100.00
73981;BME280;62348;51.412;5.436;2024-02-26T09:55:28;100036.88;;;4.35;100.00
73981;BME280;62348;51.412;5.436;2024-02-26T09:57:53;100044.13;;;4.35;100.00
73981;BME280;62348;51.412;5.436;2024-02-26T10:00:21;100052.94;;;4.35;100.00
73981;BME280;62348;51.412;5.436;2024-02-26T10:02:47;100055.38;;;4.37;100.00
73981;BME280;62348;51.412;5.436;2024-02-26T10:05:16;100062.59;;;4.36;100.00
73981;BME280;62348;51.412;5.436;2024-02-26T10:07:44;100061.78;;;4.36;100.00
73981;BME280;62348;51.412;5.436;2024-02-26T10:10:11;100055.84;;;4.34;100.00
73981;BME280;62348;51.412;5.436;2024-02-26T10:12:36;100069.81;;;4.36;100.00
73981;BME280;62348;51.412;5.436;2024-02-26T10:15:02;100077.03;;;4.35;100.00
73981;BME280;62348;51.412;5.436;2024-02-26T10:17:28;100084.84;;;4.37;100.00
73981;BME280;62348;51.412;5.436;2024-02-26T10:19:54;100080.06;;;4.39;100.00
73981;BME280;62348;51.412;5.436;2024-02-26T10:22:22;100094.47;;;4.38;100.00
73981;BME280;62348;51.412;5.436;2024-02-26T10:24:47;100091.78;;;4.38;100.00
73981;BME280;62348;51.412;5.436;2024-02-26T10:27:13;100097.72;;;4.40;100.00
73981;BME280;62348;51.412;5.436;2024-02-26T10:29:40;100091.56;;;4.39;100.00
73981;BME280;62348;51.412;5.436;2024-02-26T10:32:07;100104.94;;;4.39;100.00
73981;BME280;62348;51.412;5.436;2024-02-26T10:34:35;100111.38;;;4.38;100.00
73981;BME280;62348;51.412;5.436;2024-02-26T10:37:01;100108.44;;;4.40;100.00
73981;BME280;62348;51.412;5.436;2024-02-26T10:39:27;100108.19;;;4.41;100.00
73981;BME280;62348;51.412;5.436;2024-02-26T10:41:53;100122.38;;;4.42;100.00
73981;BME280;62348;51.412;5.436;2024-02-26T10:44:18;100120.53;;;4.42;100.00
73981;BME280;62348;51.412;5.436;2024-02-26T10:46:46;100124.03;;;4.43;100.00
73981;BME280;62348;51.412;5.436;2024-02-26T10:49:14;100129.03;;;4.39;100.00
73981;BME280;62348;51.412;5.436;2024-02-26T10:51:44;100138.69;;;4.40;100.00
73981;BME280;62348;51.412;5.436;2024-02-26T10:54:15;100143.50;;;4.38;100.00
73981;BME280;62348;51.412;5.436;2024-02-26T10:56:42;100150.44;;;4.39;100.00
73981;BME280;62348;51.412;5.436;2024-02-26T10:59:09;100152.09;;;4.40;100.00
73981;BME280;62348;51.412;5.436;2024-02-26T11:01:35;100146.72;;;4.40;100.00
73981;BME280;62348;51.412;5.436;2024-02-26T11:04:03;100158.47;;;4.39;100.00
73981;BME280;62348;51.412;5.436;2024-02-26T11:06:30;100163.84;;;4.39;100.00
73981;BME280;62348;51.412;5.436;2024-02-26T11:08:56;100167.31;;;4.40;100.00
73981;BME280;62348;51.412;5.436;2024-02-26T11:11:23;100172.22;;;4.43;100.00
73981;BME280;62348;51.412;5.436;2024-02-26T11:13:53;100171.13;;;4.44;100.00
73981;BME280;62348;51.412;5.436;2024-02-26T11:16:21;100174.88;;;4.43;100.00
73981;BME280;62348;51.412;5.436;2024-02-26T11:18:48;100181.03;;;4.43;100.00
73981;BME280;62348;51.412;5.436;2024-02-26T11:21:17;100180.47;;;4.41;100.00
73981;BME280;62348;51.412;5.436;2024-02-26T11:23:45;100179.44;;;4.42;100.00
73981;BME280;62348;51.412;5.436;2024-02-26T11:26:12;100179.66;;;4.41;100.00
73981;BME280;62348;51.412;5.436;2024-02-26T11:28:40;100191.97;;;4.42;100.00
73981;BME280;62348;51.412;5.436;2024-02-26T11:31:07;100193.28;;;4.39;100.00
73981;BME280;62348;51.412;5.436;2024-02-26T11:33:34;100200.50;;;4.39;100.00
73981;BME280;62348;51.412;5.436;2024-02-26T11:36:02;100198.63;;;4.39;100.00
73981;BME280;62348;51.412;5.436;2024-02-26T11:38:28;100188.72;;;4.40;100.00
73981;BME280;62348;51.412;5.436;2024-02-26T11:40:54;100199.44;;;4.40;100.00
73981;BME280;62348;51.412;5.436;2024-02-26T11:43:24;100193.28;;;4.39;100.00
73981;BME280;62348;51.412;5.436;2024-02-26T11:46:28;100190.38;;;4.41;100.00
73981;BME280;62348;51.412;5.436;2024-02-26T11:49:02;100197.59;;;4.40;100.00
73981;BME280;62348;51.412;5.436;2024-02-26T11:51:32;100199.22;;;4.41;100.00
73981;BME280;62348;51.412;5.436;2024-02-26T11:53:58;100204.78;;;4.40;100.00
73981;BME280;62348;51.412;5.436;2024-02-26T11:56:24;100207.25;;;4.41;100.00
73981;BME280;62348;51.412;5.436;2024-02-26T11:59:36;100204.34;;;4.43;100.00
73981;BME280;62348;51.412;5.436;2024-02-26T12:01:49;100204.56;;;4.41;100.00
73981;BME280;62348;51.412;5.436;2024-02-26T12:04:24;100209.09;;;4.41;100.00
73981;BME280;62348;51.412;5.436;2024-02-26T12:06:54;100209.91;;;4.41;100.00
73981;BME280;62348;51.412;5.436;2024-02-26T12:09:41;100212.38;;;4.43;100.00
73981;BME280;62348;51.412;5.436;2024-02-26T12:12:08;100215.84;;;4.43;100.00
73981;BME280;62348;51.412;5.436;2024-02-26T12:14:37;100227.13;;;4.45;100.00
73981;BME280;62348;51.412;5.436;2024-02-26T12:17:04;100222.59;;;4.46;100.00
73981;BME280;62348;51.412;5.436;2024-02-26T12:19:33;100222.34;;;4.47;100.00
73981;BME280;62348;51.412;5.436;2024-02-26T12:22:00;100240.28;;;4.47;100.00
73981;BME280;62348;51.412;5.436;2024-02-26T12:24:25;100236.81;;;4.46;100.00
73981;BME280;62348;51.412;5.436;2024-02-26T12:26:50;100236.81;;;4.46;100.00
73981;BME280;62348;51.412;5.436;2024-02-26T12:29:16;100242.16;;;4.46;100.00
73981;BME280;62348;51.412;5.436;2024-02-26T12:31:42;100241.09;;;4.47;100.00
73981;BME280;62348;51.412;5.436;2024-02-26T12:34:07;100241.66;;;4.49;100.00
73981;BME280;62348;51.412;5.436;2024-02-26T12:36:35;100251.34;;;4.50;100.00
73981;BME280;62348;51.412;5.436;2024-02-26T12:39:04;100261.00;;;4.52;100.00
73981;BME280;62348;51.412;5.436;2024-02-26T12:41:33;100248.44;;;4.52;100.00
73981;BME280;62348;51.412;5.436;2024-02-26T12:43:59;100256.47;;;4.52;100.00
73981;BME280;62348;51.412;5.436;2024-02-26T12:46:25;100256.25;;;4.54;100.00
73981;BME280;62348;51.412;5.436;2024-02-26T12:48:50;100262.41;;;4.54;100.00
73981;BME280;62348;51.412;5.436;2024-02-26T12:51:16;100260.53;;;4.55;100.00
73981;BME280;62348;51.412;5.436;2024-02-26T12:53:46;100267.53;;;4.56;100.00
73981;BME280;62348;51.412;5.436;2024-02-26T12:56:15;100264.63;;;4.57;100.00
73981;BME280;62348;51.412;5.436;2024-02-26T12:58:41;100274.50;;;4.57;100.00
73981;BME280;62348;51.412;5.436;2024-02-26T13:01:14;100271.00;;;4.56;100.00
73981;BME280;62348;51.412;5.436;2024-02-26T13:03:41;100275.31;;;4.57;100.00